Terminal Aerodrome Forecast
Issued by NWS Nashville, TN

Home | Current Version | Previous Version | Text Only | Print | Product List | Glossary On
Versions: 1 2 3 4 5 6 7 8 9 10 11 12 13 14 15 16 17 18 19 20 21
865
FTUS44 KOHX 261254 AAA
TAFBNA
TAF AMD
KBNA 261254Z 2613/2712 03003KT 5SM -SHRA BR BKN060 OVC080
     FM261500 08006KT 4SM -RA BR BKN025 OVC060
     FM261900 06007KT 4SM -RA BR OVC015
     FM270100 36005KT P6SM OVC100=

USA.gov is the U.S. government's official web portal to all federal, state and local government web resources and services.